Time;durP1;ratioP1;P1;durP2;ratioP2;P2;SDS_P1;SDS_P2;PMS_P1;PMS_P2;Temp;Humidity;BMP_temperature;BMP_pressure;BME280_temperature;BME280_humidity;BME280_pressure;Samples;Min_cycle;Max_cycle;Signal;HPM_P1;HPM_P2
2021/07/01 00:00:20;;;;;;;20.00;12.73;;;16.00;99.90;;;;;;5033478;28;20464;-85
2021/07/01 00:02:46;;;;;;;17.45;11.60;;;16.00;99.90;;;;;;5034790;28;20085;-84
2021/07/01 00:05:15;;;;;;;17.80;11.70;;;16.00;99.90;;;;;;5034930;28;20060;-84
2021/07/01 00:07:42;;;;;;;17.27;11.32;;;16.00;99.90;;;;;;5016896;28;20030;-84
2021/07/01 00:10:10;;;;;;;18.55;11.95;;;16.00;99.90;;;;;;5019578;28;20501;-85
2021/07/01 00:12:36;;;;;;;21.70;12.38;;;16.00;99.90;;;;;;5037656;28;20026;-84
2021/07/01 00:15:04;;;;;;;20.85;13.10;;;16.00;99.90;;;;;;5036361;28;20477;-84
2021/07/01 00:17:29;;;;;;;23.55;13.38;;;16.00;99.90;;;;;;5018589;28;20033;-84
2021/07/01 00:19:55;;;;;;;19.42;12.48;;;16.00;99.90;;;;;;5035432;28;20039;-84
2021/07/01 00:22:20;;;;;;;17.90;11.38;;;16.00;99.90;;;;;;5018457;28;20390;-84
2021/07/01 00:24:46;;;;;;;17.90;11.20;;;16.10;99.90;;;;;;5018201;28;20076;-84
2021/07/01 00:27:11;;;;;;;16.85;10.23;;;16.10;99.90;;;;;;5018350;28;20053;-85
2021/07/01 00:29:37;;;;;;;13.95;10.38;;;16.00;99.90;;;;;;5017942;28;20036;-84
2021/07/01 00:32:03;;;;;;;15.05;10.23;;;16.10;99.90;;;;;;5018477;28;20124;-84
2021/07/01 00:34:28;;;;;;;12.32;9.50;;;16.00;99.90;;;;;;5017913;28;20036;-84
2021/07/01 00:36:54;;;;;;;13.82;10.20;;;16.00;99.90;;;;;;5017852;28;20032;-84
2021/07/01 00:39:20;;;;;;;14.07;9.80;;;16.00;99.90;;;;;;5017555;28;20152;-85
2021/07/01 00:41:45;;;;;;;14.25;10.48;;;16.00;99.90;;;;;;5017831;28;20482;-84
2021/07/01 00:44:11;;;;;;;17.77;11.23;;;16.00;99.90;;;;;;5035841;28;20033;-84
2021/07/01 00:46:36;;;;;;;14.63;11.10;;;16.00;99.90;;;;;;5017685;28;20025;-84
2021/07/01 00:49:02;;;;;;;13.70;9.95;;;16.00;99.90;;;;;;5017344;28;20039;-84
2021/07/01 00:51:28;;;;;;;15.88;10.98;;;16.00;99.90;;;;;;5017476;28;20036;-84
2021/07/01 00:53:53;;;;;;;16.52;10.55;;;16.00;99.90;;;;;;5036008;28;20487;-84
2021/07/01 00:56:19;;;;;;;14.43;10.98;;;16.00;99.90;;;;;;5017098;28;20053;-84
2021/07/01 00:58:45;;;;;;;15.95;10.32;;;16.00;99.90;;;;;;5017592;28;20057;-84
2021/07/01 01:01:11;;;;;;;14.73;10.98;;;16.10;99.90;;;;;;5016846;28;20438;-84
2021/07/01 01:03:38;;;;;;;14.38;11.18;;;16.10;99.90;;;;;;5017788;28;20055;-84
2021/07/01 01:06:05;;;;;;;16.20;10.68;;;16.10;99.90;;;;;;5035324;28;20031;-84
2021/07/01 01:08:31;;;;;;;16.40;11.05;;;16.00;99.90;;;;;;5035348;28;20041;-84
2021/07/01 01:10:57;;;;;;;15.43;10.25;;;16.00;99.90;;;;;;5034699;28;20478;-84
2021/07/01 01:13:25;;;;;;;16.58;11.00;;;16.00;99.90;;;;;;5017239;28;20034;-84
2021/07/01 01:15:57;;;;;;;16.17;11.45;;;16.00;99.90;;;;;;5035531;28;20036;-84
2021/07/01 01:18:23;;;;;;;14.52;10.98;;;16.00;99.90;;;;;;5017101;28;20078;-86
2021/07/01 01:20:50;;;;;;;14.40;11.10;;;16.00;99.90;;;;;;5034094;28;20104;-85
2021/07/01 01:23:16;;;;;;;14.50;11.20;;;16.00;99.90;;;;;;5017152;28;20021;-85
2021/07/01 01:25:54;;;;;;;15.70;11.05;;;16.00;99.90;;;;;;5017036;28;20065;-84
2021/07/01 01:28:19;;;;;;;13.88;11.05;;;16.00;99.90;;;;;;5017027;28;20083;-85
2021/07/01 01:30:45;;;;;;;14.40;10.73;;;15.90;99.90;;;;;;5034335;28;20115;-84
2021/07/01 01:33:11;;;;;;;14.02;10.13;;;15.90;99.90;;;;;;5017017;28;20040;-85
2021/07/01 01:35:39;;;;;;;15.55;10.90;;;15.90;99.90;;;;;;5016870;28;20030;-85
2021/07/01 01:38:08;;;;;;;14.88;10.43;;;15.80;99.90;;;;;;5034772;28;20021;-84
2021/07/01 01:40:34;;;;;;;16.52;10.32;;;15.80;99.90;;;;;;5034462;28;20441;-84
2021/07/01 01:43:00;;;;;;;13.50;10.10;;;15.70;99.90;;;;;;5016919;28;20026;-83
2021/07/01 01:45:25;;;;;;;16.65;10.60;;;15.70;99.90;;;;;;5016824;28;20030;-86
2021/07/01 01:47:51;;;;;;;15.38;10.68;;;15.70;99.90;;;;;;5016641;28;20079;-84
2021/07/01 01:50:21;;;;;;;12.85;9.70;;;15.70;99.90;;;;;;5034059;28;20033;-84
2021/07/01 01:52:48;;;;;;;15.45;10.88;;;15.70;99.90;;;;;;5016608;28;20112;-84
2021/07/01 01:55:15;;;;;;;14.73;9.85;;;15.70;99.90;;;;;;5034526;28;20100;-84
2021/07/01 01:57:42;;;;;;;17.90;10.85;;;15.80;99.90;;;;;;5016627;28;20033;-84
2021/07/01 02:00:10;;;;;;;15.23;10.07;;;15.80;99.90;;;;;;5033788;28;20496;-84
2021/07/01 02:02:37;;;;;;;13.93;10.43;;;15.80;99.90;;;;;;5034078;28;20054;-85
2021/07/01 02:05:03;;;;;;;17.75;10.75;;;15.80;99.90;;;;;;5016874;28;20413;-84
2021/07/01 02:07:29;;;;;;;14.95;9.98;;;15.80;99.90;;;;;;5016340;28;20025;-84
2021/07/01 02:09:54;;;;;;;13.35;10.15;;;15.80;99.90;;;;;;5015841;28;20548;-84
2021/07/01 02:12:20;;;;;;;18.02;9.90;;;15.80;99.90;;;;;;5016392;28;20029;-85
2021/07/01 02:14:45;;;;;;;14.73;9.63;;;15.80;99.90;;;;;;5016019;28;20032;-84
2021/07/01 02:17:11;;;;;;;12.50;9.65;;;15.70;99.90;;;;;;5016068;28;20033;-84
2021/07/01 02:19:37;;;;;;;17.15;10.05;;;15.70;99.90;;;;;;5033753;28;20502;-84
2021/07/01 02:22:02;;;;;;;15.05;9.85;;;15.70;99.90;;;;;;5033891;28;20013;-84
2021/07/01 02:24:28;;;;;;;15.27;9.90;;;15.70;99.90;;;;;;5016195;28;20017;-85
2021/07/01 02:26:54;;;;;;;13.70;8.98;;;15.70;99.90;;;;;;5016132;28;20116;-84
2021/07/01 02:29:19;;;;;;;13.98;9.88;;;15.70;99.90;;;;;;5015584;28;20025;-84
2021/07/01 02:31:45;;;;;;;13.95;9.38;;;15.70;99.90;;;;;;5032789;28;20057;-84
2021/07/01 02:34:10;;;;;;;17.38;9.30;;;15.70;99.90;;;;;;5015854;28;20033;-85
2021/07/01 02:36:36;;;;;;;14.82;9.98;;;15.70;99.90;;;;;;5016060;28;20068;-84
2021/07/01 02:39:02;;;;;;;14.43;9.57;;;15.80;99.90;;;;;;5015138;28;20382;-84
2021/07/01 02:41:28;;;;;;;15.57;9.50;;;15.70;99.90;;;;;;5016124;28;20028;-84
2021/07/01 02:43:53;;;;;;;16.88;10.60;;;15.70;99.90;;;;;;5015636;28;20025;-84
2021/07/01 02:46:19;;;;;;;16.15;9.63;;;15.70;99.90;;;;;;5015675;28;20032;-84
2021/07/01 02:48:44;;;;;;;14.98;10.25;;;15.70;99.90;;;;;;5032729;28;20390;-85
2021/07/01 02:51:10;;;;;;;13.07;9.73;;;15.70;99.90;;;;;;5013954;28;20080;-85
2021/07/01 02:53:36;;;;;;;15.35;10.13;;;15.70;99.90;;;;;;5015246;28;20033;-84
2021/07/01 02:56:01;;;;;;;15.48;9.68;;;15.70;99.90;;;;;;5033052;28;20021;-84
2021/07/01 02:58:27;;;;;;;15.60;9.80;;;15.70;99.90;;;;;;5016111;28;20504;-86
2021/07/01 03:00:52;;;;;;;14.35;9.52;;;15.70;99.90;;;;;;5032580;28;20025;-84
2021/07/01 03:03:18;;;;;;;13.55;9.40;;;15.70;99.90;;;;;;5015334;28;20075;-84
2021/07/01 03:05:44;;;;;;;17.92;11.35;;;15.70;99.90;;;;;;5033015;28;20113;-84
2021/07/01 03:08:09;;;;;;;15.27;9.35;;;15.60;99.90;;;;;;5033129;28;20491;-84
2021/07/01 03:10:35;;;;;;;12.95;8.48;;;15.60;99.90;;;;;;5015112;28;20423;-84
2021/07/01 03:13:00;;;;;;;12.88;9.15;;;15.60;99.90;;;;;;5015590;28;20034;-84
2021/07/01 03:15:26;;;;;;;14.20;8.77;;;15.60;99.90;;;;;;5015183;28;20036;-85
2021/07/01 03:17:52;;;;;;;13.75;8.57;;;15.60;99.90;;;;;;5032781;28;20481;-84
2021/07/01 03:20:17;;;;;;;12.10;8.65;;;15.60;99.90;;;;;;5014514;28;20045;-85
2021/07/01 03:22:43;;;;;;;13.52;8.90;;;15.60;99.90;;;;;;5015251;28;20434;-84
2021/07/01 03:25:09;;;;;;;21.63;12.00;;;15.50;99.90;;;;;;5015467;28;20420;-84
2021/07/01 03:27:35;;;;;;;21.55;10.90;;;15.50;99.90;;;;;;5015134;28;20022;-84
2021/07/01 03:30:00;;;;;;;14.57;8.70;;;15.50;99.90;;;;;;5014708;28;20510;-84
2021/07/01 03:32:26;;;;;;;14.77;7.80;;;15.50;99.90;;;;;;5033041;28;20037;-84
2021/07/01 03:34:51;;;;;;;20.73;9.70;;;15.50;99.90;;;;;;5032695;28;20025;-84
2021/07/01 03:37:17;;;;;;;20.60;10.00;;;15.50;99.90;;;;;;5032872;28;20034;-84
2021/07/01 03:39:43;;;;;;;21.33;10.93;;;15.50;99.90;;;;;;5014851;28;20030;-84
2021/07/01 03:42:10;;;;;;;20.77;10.82;;;15.50;99.90;;;;;;5033165;28;20076;-84
2021/07/01 03:44:37;;;;;;;22.35;10.60;;;15.40;99.90;;;;;;5019200;28;20052;-85
2021/07/01 03:47:03;;;;;;;21.65;9.30;;;15.40;99.90;;;;;;5037506;28;20030;-84
2021/07/01 03:49:29;;;;;;;18.77;8.90;;;15.40;99.90;;;;;;5020241;28;20037;-84
2021/07/01 03:51:55;;;;;;;20.85;9.88;;;15.40;99.90;;;;;;5021157;28;20474;-84
2021/07/01 03:54:20;;;;;;;24.75;10.50;;;15.50;99.90;;;;;;5019171;28;20458;-85
2021/07/01 03:56:46;;;;;;;20.25;10.23;;;15.50;99.90;;;;;;5018951;28;20116;-84
2021/07/01 03:59:13;;;;;;;21.50;11.07;;;15.50;99.90;;;;;;5018363;28;20079;-84
2021/07/01 04:01:40;;;;;;;22.92;9.68;;;15.50;99.90;;;;;;5018617;28;20029;-84
2021/07/01 04:04:06;;;;;;;21.73;10.77;;;15.50;99.90;;;;;;5019108;28;20067;-84
2021/07/01 04:06:32;;;;;;;22.52;9.40;;;15.50;99.90;;;;;;5036943;28;20025;-85
2021/07/01 04:08:58;;;;;;;22.48;9.38;;;15.50;99.90;;;;;;5035768;28;20546;-84
2021/07/01 04:11:25;;;;;;;23.42;10.35;;;15.50;99.90;;;;;;5036794;28;20057;-84
2021/07/01 04:13:51;;;;;;;18.23;8.93;;;15.50;99.90;;;;;;5018264;28;20498;-85
2021/07/01 04:16:16;;;;;;;22.33;8.23;;;15.50;99.90;;;;;;5018409;28;20032;-84
2021/07/01 04:18:42;;;;;;;20.63;8.15;;;15.50;99.90;;;;;;5036470;28;20036;-84
2021/07/01 04:21:07;;;;;;;17.58;7.82;;;15.50;99.90;;;;;;5017761;28;20412;-84
2021/07/01 04:23:33;;;;;;;16.10;7.45;;;15.50;99.90;;;;;;5036144;28;20076;-84
2021/07/01 04:25:59;;;;;;;15.98;7.95;;;15.40;99.90;;;;;;5036313;28;20030;-85
2021/07/01 04:28:24;;;;;;;17.20;7.80;;;15.50;99.90;;;;;;5036160;28;20037;-84
2021/07/01 04:30:50;;;;;;;17.70;8.77;;;15.40;99.90;;;;;;5017752;28;20037;-84
2021/07/01 04:33:16;;;;;;;19.90;8.98;;;15.40;99.90;;;;;;5018404;28;20585;-84
2021/07/01 04:35:47;;;;;;;17.50;8.48;;;15.50;99.90;;;;;;5018137;28;20025;-85
2021/07/01 04:38:17;;;;;;;20.27;8.73;;;15.50;99.90;;;;;;5018177;28;20029;-85
2021/07/01 04:40:43;;;;;;;20.35;8.38;;;15.40;99.90;;;;;;5035244;28;20029;-84
2021/07/01 04:43:08;;;;;;;19.42;7.85;;;15.40;99.90;;;;;;5017938;28;20033;-84
2021/07/01 04:45:35;;;;;;;18.27;8.00;;;15.40;99.90;;;;;;5036040;28;20084;-84
2021/07/01 04:48:00;;;;;;;20.00;8.95;;;15.40;99.90;;;;;;5017815;28;20517;-84
2021/07/01 04:50:26;;;;;;;16.33;8.40;;;15.30;99.90;;;;;;5017297;28;20029;-83
2021/07/01 04:52:52;;;;;;;19.23;9.57;;;15.30;99.90;;;;;;5035812;28;20112;-83
2021/07/01 04:55:18;;;;;;;18.02;9.82;;;15.30;99.90;;;;;;5035421;28;20426;-83
2021/07/01 04:57:44;;;;;;;18.77;9.73;;;15.30;99.90;;;;;;5017621;28;20025;-84
2021/07/01 05:00:10;;;;;;;21.85;10.00;;;15.30;99.90;;;;;;5017139;28;20022;-84
2021/07/01 05:02:35;;;;;;;25.17;11.27;;;15.30;99.90;;;;;;5017575;28;20240;-84
2021/07/01 05:05:02;;;;;;;22.83;10.45;;;15.30;99.90;;;;;;5017675;28;20022;-84
2021/07/01 05:07:28;;;;;;;19.75;10.43;;;15.30;99.90;;;;;;5035314;28;20034;-84
2021/07/01 05:09:54;;;;;;;19.33;11.13;;;15.30;99.90;;;;;;5035006;28;20029;-84
2021/07/01 05:12:19;;;;;;;21.60;10.57;;;15.30;99.90;;;;;;5017097;28;20029;-84
2021/07/01 05:14:45;;;;;;;24.33;10.48;;;15.30;99.90;;;;;;5017630;28;20441;-84
2021/07/01 05:17:11;;;;;;;22.25;11.35;;;15.30;99.90;;;;;;5035468;28;20075;-84
2021/07/01 05:19:36;;;;;;;21.70;10.40;;;15.30;99.90;;;;;;5043778;23;20041;-86
2021/07/01 05:22:02;;;;;;;20.63;10.85;;;15.30;99.90;;;;;;5052400;28;20472;-86
2021/07/01 05:24:28;;;;;;;25.02;9.90;;;15.30;99.90;;;;;;5053684;28;20367;-86
2021/07/01 05:26:54;;;;;;;22.63;10.35;;;15.30;99.90;;;;;;5052431;28;20128;-86
2021/07/01 05:29:19;;;;;;;22.10;9.98;;;15.30;99.90;;;;;;5051903;28;20033;-86
2021/07/01 05:31:45;;;;;;;24.83;9.70;;;15.30;99.90;;;;;;5053486;28;20496;-87
2021/07/01 05:34:11;;;;;;;20.77;9.20;;;15.30;99.90;;;;;;5054782;28;20100;-86
2021/07/01 05:36:37;;;;;;;17.52;9.60;;;15.30;99.90;;;;;;5054133;28;20785;-87
2021/07/01 05:39:06;;;;;;;20.73;9.73;;;15.30;99.90;;;;;;5051892;28;20050;-85
2021/07/01 05:41:31;;;;;;;19.20;8.90;;;15.30;99.90;;;;;;5052414;28;20456;-85
2021/07/01 05:44:00;;;;;;;20.73;10.95;;;15.30;99.90;;;;;;5053712;28;20110;-86
2021/07/01 05:46:26;;;;;;;21.38;9.70;;;15.30;99.90;;;;;;5053531;28;20029;-85
2021/07/01 05:48:51;;;;;;;21.20;9.20;;;15.30;99.90;;;;;;5052115;28;20029;-86
2021/07/01 05:51:18;;;;;;;15.88;9.05;;;15.30;99.90;;;;;;5052164;28;20112;-86
2021/07/01 05:56:09;;;;;;;17.30;8.35;;;15.40;99.90;;;;;;5054055;28;20501;-86
2021/07/01 05:58:34;;;;;;;22.48;10.32;;;15.40;99.90;;;;;;5052317;28;20032;-85
2021/07/01 06:01:00;;;;;;;17.27;8.50;;;15.40;99.90;;;;;;5052899;28;20025;-85
2021/07/01 06:03:25;;;;;;;19.83;8.23;;;15.40;99.90;;;;;;5052345;28;20083;-86
2021/07/01 06:05:55;;;;;;;21.00;7.78;;;15.30;99.90;;;;;;5051408;28;20029;-85
2021/07/01 06:08:22;;;;;;;23.58;10.50;;;15.30;99.90;;;;;;5051885;28;20036;-86
2021/07/01 06:10:51;;;;;;;19.52;9.02;;;15.40;99.90;;;;;;5051825;28;20461;-86
2021/07/01 06:13:23;;;;;;;22.52;9.00;;;15.40;99.90;;;;;;5051893;28;20477;-85
2021/07/01 06:15:50;;;;;;;19.67;9.80;;;15.30;99.90;;;;;;5051986;28;20036;-85
2021/07/01 06:18:19;;;;;;;18.17;9.00;;;15.40;99.90;;;;;;5052073;28;20025;-86
2021/07/01 06:20:44;;;;;;;19.35;9.35;;;15.40;99.90;;;;;;5051278;28;20504;-86
2021/07/01 06:23:11;;;;;;;23.45;10.45;;;15.40;99.90;;;;;;5053088;28;20033;-86
2021/07/01 06:25:38;;;;;;;18.92;9.65;;;15.40;99.90;;;;;;5052997;28;20029;-86
2021/07/01 06:28:04;;;;;;;21.08;8.38;;;15.30;99.90;;;;;;5051843;28;20058;-85
2021/07/01 06:30:30;;;;;;;20.30;9.23;;;15.40;99.90;;;;;;5052617;28;20029;-85
2021/07/01 06:32:57;;;;;;;16.95;8.65;;;15.40;99.90;;;;;;5052706;28;20021;-86
2021/07/01 06:35:25;;;;;;;18.25;8.23;;;15.40;99.90;;;;;;5051688;28;20028;-86
2021/07/01 06:37:59;;;;;;;18.05;8.85;;;15.40;99.90;;;;;;5051906;28;20021;-86
2021/07/01 06:40:25;;;;;;;16.33;7.70;;;15.40;99.90;;;;;;5050922;28;20040;-86
2021/07/01 06:42:56;;;;;;;18.30;8.55;;;15.30;99.90;;;;;;5051385;28;20039;-86
2021/07/01 06:45:23;;;;;;;17.08;8.50;;;15.30;99.90;;;;;;5051732;28;20058;-87
2021/07/01 06:47:51;;;;;;;15.57;8.55;;;15.40;99.90;;;;;;5051450;28;20029;-86
2021/07/01 06:50:21;;;;;;;19.58;9.15;;;15.40;99.90;;;;;;5050458;28;20022;-86
2021/07/01 06:52:48;;;;;;;18.67;9.63;;;15.40;99.90;;;;;;5051171;28;20017;-86
2021/07/01 06:55:15;;;;;;;19.08;9.30;;;15.40;99.90;;;;;;5052504;28;20032;-87
2021/07/01 06:57:42;;;;;;;23.25;10.48;;;15.40;99.90;;;;;;5052100;28;20071;-86
2021/07/01 07:00:10;;;;;;;19.27;10.25;;;15.40;99.90;;;;;;5050581;28;20021;-86
2021/07/01 07:02:36;;;;;;;21.50;10.82;;;15.40;99.90;;;;;;5052355;28;20017;-86
2021/07/01 07:05:04;;;;;;;18.20;10.85;;;15.40;99.90;;;;;;5051202;28;20477;-86
2021/07/01 07:07:31;;;;;;;19.77;10.95;;;15.40;99.90;;;;;;5051368;28;20025;-86
2021/07/01 07:10:01;;;;;;;20.23;10.57;;;15.40;99.90;;;;;;5050945;28;20148;-86
2021/07/01 07:12:26;;;;;;;21.55;10.43;;;15.40;99.90;;;;;;5051421;28;20388;-86
2021/07/01 07:14:52;;;;;;;18.98;10.98;;;15.40;99.90;;;;;;5050694;28;20124;-86
2021/07/01 07:17:18;;;;;;;24.05;12.13;;;15.30;99.90;;;;;;5050970;28;20056;-86
2021/07/01 07:19:47;;;;;;;21.60;12.20;;;15.30;99.90;;;;;;5050268;28;20435;-86
2021/07/01 07:22:16;;;;;;;16.50;10.23;;;15.30;99.90;;;;;;5052059;28;20108;-86
2021/07/01 07:24:44;;;;;;;21.58;11.27;;;15.30;99.90;;;;;;5052306;28;20028;-86
2021/07/01 07:27:11;;;;;;;20.58;10.52;;;15.40;99.90;;;;;;5051341;28;20025;-86
2021/07/01 07:29:41;;;;;;;18.80;10.20;;;15.40;99.90;;;;;;5050747;28;20052;-86
2021/07/01 07:32:08;;;;;;;24.23;11.25;;;15.40;99.90;;;;;;5052187;28;20481;-86
2021/07/01 07:34:34;;;;;;;22.17;10.65;;;15.50;99.90;;;;;;5050990;28;20029;-86
2021/07/01 07:37:00;;;;;;;25.15;12.40;;;15.50;99.90;;;;;;5050852;28;20029;-86
2021/07/01 07:39:27;;;;;;;20.42;11.32;;;15.50;99.90;;;;;;5051777;28;20524;-86
2021/07/01 07:41:53;;;;;;;18.10;10.20;;;15.50;99.90;;;;;;5050952;28;20025;-86
2021/07/01 07:44:20;;;;;;;22.58;9.90;;;15.50;99.90;;;;;;5051149;28;20091;-86
2021/07/01 07:46:46;;;;;;;21.45;10.52;;;15.50;99.90;;;;;;5052353;28;20078;-86
2021/07/01 07:49:11;;;;;;;19.02;9.68;;;15.50;99.90;;;;;;5050074;28;20029;-85
2021/07/01 07:51:38;;;;;;;18.33;9.35;;;15.50;99.90;;;;;;5050532;28;20473;-86
2021/07/01 07:54:07;;;;;;;18.83;9.55;;;15.50;99.90;;;;;;5050983;28;20060;-86
2021/07/01 07:56:37;;;;;;;19.38;8.85;;;15.50;99.90;;;;;;5050688;28;20025;-86
2021/07/01 07:59:05;;;;;;;16.90;8.70;;;15.50;99.90;;;;;;5049830;28;20029;-86
2021/07/01 08:01:34;;;;;;;25.75;9.48;;;15.50;99.90;;;;;;5050331;28;20021;-86
2021/07/01 08:04:04;;;;;;;17.65;8.43;;;15.50;99.90;;;;;;5050755;28;20029;-86
2021/07/01 08:06:31;;;;;;;17.52;9.40;;;15.50;99.90;;;;;;5050916;28;20084;-86
2021/07/01 08:08:59;;;;;;;18.75;8.90;;;15.50;99.90;;;;;;5050311;28;20025;-86
2021/07/01 08:11:25;;;;;;;17.77;9.43;;;15.50;99.90;;;;;;5050881;28;20075;-87
2021/07/01 08:13:55;;;;;;;17.50;10.15;;;15.50;99.90;;;;;;5051057;28;20163;-87
2021/07/01 08:16:23;;;;;;;20.88;10.73;;;15.40;99.90;;;;;;5052323;28;20024;-86
2021/07/01 08:18:49;;;;;;;24.53;11.57;;;15.40;99.90;;;;;;5050452;28;20021;-87
2021/07/01 08:21:15;;;;;;;20.83;9.82;;;15.40;99.90;;;;;;5050040;28;20421;-87
2021/07/01 08:23:45;;;;;;;19.30;9.48;;;15.40;99.90;;;;;;5050974;28;20021;-87
2021/07/01 08:26:12;;;;;;;18.63;10.65;;;15.50;99.90;;;;;;5050893;28;20032;-87
2021/07/01 08:28:38;;;;;;;21.95;10.00;;;15.50;99.90;;;;;;5052126;28;20075;-86
2021/07/01 08:31:14;;;;;;;21.02;10.07;;;15.50;99.90;;;;;;5053236;28;20389;-86
2021/07/01 08:33:42;;;;;;;20.80;10.10;;;15.50;99.90;;;;;;5054793;28;20060;-86
2021/07/01 08:36:24;;;;;;;23.65;11.25;;;15.50;99.90;;;;;;5054968;28;20025;-86
2021/07/01 08:38:52;;;;;;;16.77;10.07;;;15.50;99.90;;;;;;5055229;28;20041;-87
2021/07/01 08:41:24;;;;;;;20.17;10.23;;;15.40;99.90;;;;;;5054596;28;20119;-86
2021/07/01 08:44:00;;;;;;;21.27;10.63;;;15.40;99.90;;;;;;5054988;28;20388;-86
2021/07/01 08:46:28;;;;;;;17.50;9.85;;;15.40;99.90;;;;;;5054576;28;20033;-86
2021/07/01 08:48:58;;;;;;;16.75;9.48;;;15.40;99.90;;;;;;5054204;28;20070;-87
2021/07/01 08:51:29;;;;;;;16.63;9.45;;;15.40;99.90;;;;;;5053414;28;20477;-87
2021/07/01 08:54:07;;;;;;;19.52;10.35;;;15.40;99.90;;;;;;5053458;28;20079;-86
2021/07/01 08:56:36;;;;;;;15.40;9.27;;;15.50;99.90;;;;;;5054609;28;20040;-86
2021/07/01 08:59:06;;;;;;;14.93;9.13;;;15.50;99.90;;;;;;5052911;28;20480;-86
2021/07/01 09:01:32;;;;;;;18.83;9.40;;;15.50;99.90;;;;;;5053531;28;20029;-86
2021/07/01 09:03:58;;;;;;;20.20;10.05;;;15.50;99.90;;;;;;5053356;28;20064;-87
2021/07/01 09:06:25;;;;;;;19.60;8.63;;;15.50;99.90;;;;;;5053587;28;20028;-87
2021/07/01 09:08:53;;;;;;;13.90;8.00;;;15.50;99.90;;;;;;5053302;28;20056;-86
2021/07/01 09:11:22;;;;;;;13.52;7.55;;;15.50;99.90;;;;;;5054876;28;20040;-87
2021/07/01 09:13:49;;;;;;;;;;;15.50;99.90;;;;;;5053899;28;20424;-86
2021/07/01 09:16:16;;;;;;;17.90;7.90;;;15.50;99.90;;;;;;5053729;28;20349;-87
2021/07/01 09:18:44;;;;;;;20.08;9.00;;;15.50;99.90;;;;;;5054570;28;20021;-86
2021/07/01 09:21:12;;;;;;;16.25;7.97;;;15.50;99.90;;;;;;5052235;28;20033;-87
2021/07/01 09:23:45;;;;;;;18.10;9.18;;;15.50;99.90;;;;;;5053099;28;20029;-87
2021/07/01 09:26:18;;;;;;;18.65;8.15;;;15.60;99.90;;;;;;5052758;28;20393;-87
2021/07/01 09:28:45;;;;;;;14.73;7.90;;;15.60;99.90;;;;;;5052498;28;20115;-87
2021/07/01 09:31:11;;;;;;;17.33;10.48;;;15.60;99.90;;;;;;5051766;28;20025;-86
2021/07/01 09:33:39;;;;;;;17.92;8.23;;;15.60;99.90;;;;;;5052922;28;20546;-86
2021/07/01 09:36:04;;;;;;;17.92;7.90;;;15.60;99.90;;;;;;5053077;28;20025;-87
2021/07/01 09:38:32;;;;;;;17.15;8.48;;;15.60;99.90;;;;;;5054528;28;20025;-86
2021/07/01 09:40:58;;;;;;;16.20;8.30;;;15.60;99.90;;;;;;5052135;28;20017;-86
2021/07/01 09:43:26;;;;;;;13.07;7.53;;;15.60;99.90;;;;;;5052899;28;20074;-86
2021/07/01 09:45:59;;;;;;;21.08;8.27;;;15.70;99.90;;;;;;5052797;28;20115;-87
2021/07/01 09:48:28;;;;;;;24.52;8.98;;;15.70;99.90;;;;;;5052766;28;20021;-87
2021/07/01 09:50:56;;;;;;;18.60;8.77;;;15.70;99.90;;;;;;5052302;28;20029;-86
2021/07/01 09:53:28;;;;;;;17.98;8.98;;;15.70;99.90;;;;;;5052870;28;20140;-87
2021/07/01 09:55:54;;;;;;;18.45;8.13;;;15.70;99.90;;;;;;5052809;28;20079;-86
2021/07/01 09:58:21;;;;;;;19.15;7.78;;;15.70;99.90;;;;;;5052647;28;20021;-86
2021/07/01 10:00:52;;;;;;;19.13;7.07;;;15.70;99.90;;;;;;5053201;28;20021;-86
2021/07/01 10:03:18;;;;;;;19.50;7.63;;;15.60;99.90;;;;;;5053234;28;20017;-86
2021/07/01 10:05:44;;;;;;;18.20;7.43;;;15.60;99.90;;;;;;5054152;28;20096;-86
2021/07/01 10:08:10;;;;;;;21.58;9.25;;;15.60;99.90;;;;;;5053699;28;20489;-86
2021/07/01 10:10:43;;;;;;;16.92;7.63;;;15.60;99.90;;;;;;5052226;28;20032;-87
2021/07/01 10:13:11;;;;;;;15.35;7.05;;;15.70;99.90;;;;;;5052514;28;20045;-87
2021/07/01 10:15:38;;;;;;;15.25;7.38;;;15.70;99.90;;;;;;5052584;28;20029;-86
2021/07/01 10:18:10;;;;;;;16.10;8.25;;;15.60;99.90;;;;;;5053467;28;20023;-86
2021/07/01 10:20:35;;;;;;;18.33;7.53;;;15.60;99.90;;;;;;5051228;28;20036;-86
2021/07/01 10:23:02;;;;;;;15.48;7.70;;;15.60;99.90;;;;;;5051677;28;20025;-86
2021/07/01 10:25:30;;;;;;;12.77;7.60;;;15.60;99.90;;;;;;5051608;28;20029;-86
2021/07/01 10:28:08;;;;;;;18.90;8.33;;;15.60;99.90;;;;;;5053046;28;20023;-86
2021/07/01 10:30:33;;;;;;;15.43;7.22;;;15.60;99.90;;;;;;5051301;28;20270;-86
2021/07/01 10:32:59;;;;;;;17.30;8.30;;;15.60;99.90;;;;;;5052839;28;20596;-86
2021/07/01 10:35:31;;;;;;;15.38;7.97;;;15.70;99.90;;;;;;5051448;28;20024;-86
2021/07/01 10:38:12;;;;;;;13.77;7.40;;;15.70;99.90;;;;;;5051344;28;20032;-86
2021/07/01 10:40:40;;;;;;;17.60;8.07;;;15.70;99.90;;;;;;5052314;28;20109;-86
2021/07/01 10:43:08;;;;;;;18.77;9.17;;;15.70;99.90;;;;;;5051754;28;20382;-86
2021/07/01 10:45:34;;;;;;;14.90;8.17;;;15.70;99.90;;;;;;5051551;28;20290;-87
2021/07/01 10:48:16;;;;;;;17.65;8.75;;;15.80;99.90;;;;;;5052640;28;20021;-86
2021/07/01 10:50:43;;;;;;;15.57;8.43;;;15.80;99.90;;;;;;5052092;28;20431;-86
2021/07/01 10:53:25;;;;;;;15.52;8.32;;;15.80;99.90;;;;;;5050830;28;20091;-86
2021/07/01 10:55:52;;;;;;;13.70;8.00;;;15.70;99.90;;;;;;5052316;28;20025;-86
2021/07/01 10:58:18;;;;;;;19.15;9.25;;;15.70;99.90;;;;;;5051142;28;20017;-86
2021/07/01 11:00:45;;;;;;;24.10;10.20;;;15.70;99.90;;;;;;5051875;28;20094;-86
2021/07/01 11:03:20;;;;;;;15.05;8.52;;;15.70;99.90;;;;;;5051038;28;20120;-86
2021/07/01 11:05:46;;;;;;;19.17;9.02;;;15.70;99.90;;;;;;5051082;28;20066;-86
2021/07/01 11:08:34;;;;;;;13.60;8.05;;;15.80;99.90;;;;;;5052265;28;20033;-86
2021/07/01 11:11:04;;;;;;;18.63;8.90;;;15.70;99.90;;;;;;5050503;28;20098;-85
2021/07/01 11:13:30;;;;;;;;;;;15.70;99.90;;;;;;5051277;28;20083;-86
2021/07/01 11:16:15;;;;;;;15.05;8.20;;;15.70;99.90;;;;;;5050776;28;19909;-86
2021/07/01 11:18:47;;;;;;;17.42;8.63;;;15.70;99.90;;;;;;5052027;28;20452;-86
2021/07/01 11:21:15;;;;;;;17.88;8.90;;;15.70;99.90;;;;;;5050698;28;20036;-85
2021/07/01 11:23:45;;;;;;;19.38;9.55;;;15.70;99.90;;;;;;5052101;28;20083;-86
2021/07/01 11:26:30;;;;;;;15.73;9.07;;;15.60;99.90;;;;;;5051081;28;20116;-85
2021/07/01 11:28:58;;;;;;;16.27;9.45;;;15.50;99.90;;;;;;5050170;28;20025;-85
2021/07/01 11:31:35;;;;;;;15.40;8.45;;;15.60;99.90;;;;;;5050453;28;20025;-86
2021/07/01 11:34:01;;;;;;;15.48;8.43;;;15.60;99.90;;;;;;5052309;28;20032;-85
2021/07/01 11:36:27;;;;;;;14.68;7.40;;;15.60;99.90;;;;;;5050590;28;20021;-86
2021/07/01 11:39:13;;;;;;;14.90;7.68;;;15.60;99.90;;;;;;5050401;28;20014;-85
2021/07/01 11:41:40;;;;;;;14.68;7.75;;;15.50;99.90;;;;;;5050549;28;20029;-85
2021/07/01 11:44:08;;;;;;;13.80;8.68;;;15.60;99.90;;;;;;5051890;28;20021;-85
2021/07/01 11:46:34;;;;;;;13.82;8.07;;;15.50;99.90;;;;;;5051794;28;20381;-85
2021/07/01 11:49:04;;;;;;;13.77;8.10;;;15.60;99.90;;;;;;5049540;28;20080;-85
2021/07/01 11:51:31;;;;;;;12.98;7.50;;;15.60;99.90;;;;;;5051653;28;20017;-85
2021/07/01 11:53:58;;;;;;;11.68;6.68;;;15.60;99.90;;;;;;5052061;28;20079;-85
2021/07/01 11:56:24;;;;;;;14.80;7.25;;;15.60;99.90;;;;;;5050437;28;20504;-86
2021/07/01 11:58:49;;;;;;;14.35;7.90;;;15.60;99.90;;;;;;5051339;28;20025;-85
2021/07/01 12:01:15;;;;;;;13.77;8.13;;;15.60;99.90;;;;;;5051085;28;20039;-85
2021/07/01 12:03:45;;;;;;;12.73;7.57;;;15.60;99.90;;;;;;5050330;28;20021;-85
2021/07/01 12:06:26;;;;;;;14.20;6.97;;;15.60;99.90;;;;;;5053682;28;20029;-86
2021/07/01 12:08:52;;;;;;;13.68;6.63;;;15.60;99.90;;;;;;5053828;28;20029;-85
2021/07/01 12:11:17;;;;;;;10.20;6.47;;;15.60;99.90;;;;;;5053753;28;20071;-85
2021/07/01 12:13:44;;;;;;;10.55;6.30;;;15.60;99.90;;;;;;5055093;28;20025;-86
2021/07/01 12:16:11;;;;;;;11.45;6.68;;;15.60;99.90;;;;;;5053908;28;20029;-85
2021/07/01 12:18:48;;;;;;;12.85;7.15;;;15.60;99.90;;;;;;5053899;28;20021;-86
2021/07/01 12:21:15;;;;;;;10.65;6.90;;;15.60;99.90;;;;;;5054554;28;20035;-85
2021/07/01 12:24:01;;;;;;;16.90;7.90;;;15.60;99.90;;;;;;5054930;28;20091;-85
2021/07/01 12:26:38;;;;;;;11.45;6.70;;;15.60;99.90;;;;;;5053880;28;20482;-86
2021/07/01 12:29:09;;;;;;;14.27;7.45;;;15.70;99.90;;;;;;5054237;28;20025;-85
2021/07/01 12:31:37;;;;;;;12.65;6.90;;;15.60;99.90;;;;;;5053373;28;20059;-85
2021/07/01 12:34:05;;;;;;;11.02;7.90;;;15.60;99.90;;;;;;5053940;28;20505;-85
2021/07/01 12:36:33;;;;;;;10.88;6.85;;;15.70;99.90;;;;;;5053579;28;20079;-86